Аэропорт: Петропавловск. Петропавловск

ICAO: UACP

METAR:
Информация по данной станции не доступна
METAR:
2021-07-28 08:01:00
TAF UACP 280801Z 2809/2818 23004MPS 9999 -SHRA SCT015 BKN030CB TEMPO 2809/2812 26008G13MPS 3100 -TSRA BKN011 OVC030CB